sensor_id;sensor_type;location;lat;lon;timestamp;temperature;humidity
59977;DHT22;45837;51.076;3.578;2023-12-28T00:01:37;19.00;58.90
59977;DHT22;45837;51.076;3.578;2023-12-28T00:04:03;19.10;59.00
59977;DHT22;45837;51.076;3.578;2023-12-28T00:06:29;19.10;58.70
59977;DHT22;45837;51.076;3.578;2023-12-28T00:08:55;19.10;58.90
59977;DHT22;45837;51.076;3.578;2023-12-28T00:11:21;19.10;58.80
59977;DHT22;45837;51.076;3.578;2023-12-28T00:13:47;19.10;58.70
59977;DHT22;45837;51.076;3.578;2023-12-28T00:16:13;19.10;58.80
59977;DHT22;45837;51.076;3.578;2023-12-28T00:18:39;19.00;58.80
59977;DHT22;45837;51.076;3.578;2023-12-28T00:21:05;19.00;58.70
59977;DHT22;45837;51.076;3.578;2023-12-28T00:23:30;19.00;58.60
59977;DHT22;45837;51.076;3.578;2023-12-28T00:25:56;19.00;58.70
59977;DHT22;45837;51.076;3.578;2023-12-28T00:28:22;19.00;58.70
59977;DHT22;45837;51.076;3.578;2023-12-28T00:30:48;19.00;59.30
59977;DHT22;45837;51.076;3.578;2023-12-28T00:33:14;19.00;58.90
59977;DHT22;45837;51.076;3.578;2023-12-28T00:35:41;19.00;58.90
59977;DHT22;45837;51.076;3.578;2023-12-28T00:38:07;19.00;58.90
59977;DHT22;45837;51.076;3.578;2023-12-28T00:40:33;19.00;58.70
59977;DHT22;45837;51.076;3.578;2023-12-28T00:42:59;18.80;58.80
59977;DHT22;45837;51.076;3.578;2023-12-28T00:45:25;18.90;58.80
59977;DHT22;45837;51.076;3.578;2023-12-28T00:47:51;18.90;58.70
59977;DHT22;45837;51.076;3.578;2023-12-28T00:50:18;18.90;58.60
59977;DHT22;45837;51.076;3.578;2023-12-28T00:52:44;18.90;58.70
59977;DHT22;45837;51.076;3.578;2023-12-28T00:55:10;18.90;58.70
59977;DHT22;45837;51.076;3.578;2023-12-28T00:57:36;18.90;58.80
59977;DHT22;45837;51.076;3.578;2023-12-28T01:00:02;18.90;58.80
59977;DHT22;45837;51.076;3.578;2023-12-28T01:02:28;18.90;58.70
59977;DHT22;45837;51.076;3.578;2023-12-28T01:04:54;18.90;58.70
59977;DHT22;45837;51.076;3.578;2023-12-28T01:07:20;18.90;58.90
59977;DHT22;45837;51.076;3.578;2023-12-28T01:09:46;18.80;58.70
59977;DHT22;45837;51.076;3.578;2023-12-28T01:12:12;18.80;58.80
59977;DHT22;45837;51.076;3.578;2023-12-28T01:14:38;18.80;58.90
59977;DHT22;45837;51.076;3.578;2023-12-28T01:17:04;18.80;58.80
59977;DHT22;45837;51.076;3.578;2023-12-28T01:19:30;18.80;58.80
59977;DHT22;45837;51.076;3.578;2023-12-28T01:21:56;18.80;58.80
59977;DHT22;45837;51.076;3.578;2023-12-28T01:24:21;18.70;58.70
59977;DHT22;45837;51.076;3.578;2023-12-28T01:26:47;18.80;58.80
59977;DHT22;45837;51.076;3.578;2023-12-28T01:29:13;18.80;58.90
59977;DHT22;45837;51.076;3.578;2023-12-28T01:31:39;18.80;58.80
59977;DHT22;45837;51.076;3.578;2023-12-28T01:34:05;18.80;58.70
59977;DHT22;45837;51.076;3.578;2023-12-28T01:36:33;18.70;58.80
59977;DHT22;45837;51.076;3.578;2023-12-28T01:38:59;18.70;58.90
59977;DHT22;45837;51.076;3.578;2023-12-28T01:41:25;18.70;58.80
59977;DHT22;45837;51.076;3.578;2023-12-28T01:43:51;18.70;58.90
59977;DHT22;45837;51.076;3.578;2023-12-28T01:46:19;18.70;58.60
59977;DHT22;45837;51.076;3.578;2023-12-28T01:48:49;18.70;58.60
59977;DHT22;45837;51.076;3.578;2023-12-28T01:51:15;18.70;58.60
59977;DHT22;45837;51.076;3.578;2023-12-28T01:53:45;18.70;58.50
59977;DHT22;45837;51.076;3.578;2023-12-28T01:56:12;18.70;58.50
59977;DHT22;45837;51.076;3.578;2023-12-28T01:58:40;18.70;58.80
59977;DHT22;45837;51.076;3.578;2023-12-28T02:01:07;18.70;58.60
59977;DHT22;45837;51.076;3.578;2023-12-28T02:03:33;18.60;58.60
59977;DHT22;45837;51.076;3.578;2023-12-28T02:06:00;18.70;58.60
59977;DHT22;45837;51.076;3.578;2023-12-28T02:08:27;18.60;58.70
59977;DHT22;45837;51.076;3.578;2023-12-28T02:10:53;18.60;59.40
59977;DHT22;45837;51.076;3.578;2023-12-28T02:13:21;18.60;58.60
59977;DHT22;45837;51.076;3.578;2023-12-28T02:18:43;18.60;58.50
59977;DHT22;45837;51.076;3.578;2023-12-28T02:21:12;18.70;58.60
59977;DHT22;45837;51.076;3.578;2023-12-28T02:23:38;18.60;58.50
59977;DHT22;45837;51.076;3.578;2023-12-28T02:26:04;18.60;58.70
59977;DHT22;45837;51.076;3.578;2023-12-28T02:28:30;18.60;58.70
59977;DHT22;45837;51.076;3.578;2023-12-28T02:30:56;18.60;58.70
59977;DHT22;45837;51.076;3.578;2023-12-28T02:33:29;18.60;58.60
59977;DHT22;45837;51.076;3.578;2023-12-28T02:36:01;18.50;58.50
59977;DHT22;45837;51.076;3.578;2023-12-28T02:38:32;18.60;58.50
59977;DHT22;45837;51.076;3.578;2023-12-28T02:40:58;18.60;58.50
59977;DHT22;45837;51.076;3.578;2023-12-28T02:43:25;18.50;58.50
59977;DHT22;45837;51.076;3.578;2023-12-28T02:45:51;18.60;58.80
59977;DHT22;45837;51.076;3.578;2023-12-28T02:48:17;18.50;58.60
59977;DHT22;45837;51.076;3.578;2023-12-28T02:50:43;18.50;58.60
59977;DHT22;45837;51.076;3.578;2023-12-28T02:53:09;18.50;58.60
59977;DHT22;45837;51.076;3.578;2023-12-28T02:55:35;18.40;58.70
59977;DHT22;45837;51.076;3.578;2023-12-28T02:58:01;18.50;58.70
59977;DHT22;45837;51.076;3.578;2023-12-28T03:00:27;18.50;58.70
59977;DHT22;45837;51.076;3.578;2023-12-28T03:02:54;18.50;58.60
59977;DHT22;45837;51.076;3.578;2023-12-28T03:05:20;18.50;58.70
59977;DHT22;45837;51.076;3.578;2023-12-28T03:07:46;18.40;58.60
59977;DHT22;45837;51.076;3.578;2023-12-28T03:10:12;18.50;58.60
59977;DHT22;45837;51.076;3.578;2023-12-28T03:12:38;18.50;58.70
59977;DHT22;45837;51.076;3.578;2023-12-28T03:15:04;18.50;58.70
59977;DHT22;45837;51.076;3.578;2023-12-28T03:17:31;18.40;58.50
59977;DHT22;45837;51.076;3.578;2023-12-28T03:20:01;18.40;58.50
59977;DHT22;45837;51.076;3.578;2023-12-28T03:22:27;18.50;58.80
59977;DHT22;45837;51.076;3.578;2023-12-28T03:24:53;18.40;58.80
59977;DHT22;45837;51.076;3.578;2023-12-28T03:27:19;18.40;58.80
59977;DHT22;45837;51.076;3.578;2023-12-28T03:29:44;18.40;58.80
59977;DHT22;45837;51.076;3.578;2023-12-28T03:32:11;18.40;58.60
59977;DHT22;45837;51.076;3.578;2023-12-28T03:34:36;18.40;58.60
59977;DHT22;45837;51.076;3.578;2023-12-28T03:37:03;18.30;58.70
59977;DHT22;45837;51.076;3.578;2023-12-28T03:39:29;18.40;58.80
59977;DHT22;45837;51.076;3.578;2023-12-28T03:41:55;18.40;58.60
59977;DHT22;45837;51.076;3.578;2023-12-28T03:44:21;18.40;58.70
59977;DHT22;45837;51.076;3.578;2023-12-28T03:46:48;18.30;58.40
59977;DHT22;45837;51.076;3.578;2023-12-28T03:49:18;18.40;58.50
59977;DHT22;45837;51.076;3.578;2023-12-28T03:51:44;18.30;58.50
59977;DHT22;45837;51.076;3.578;2023-12-28T03:54:11;18.40;58.60
59977;DHT22;45837;51.076;3.578;2023-12-28T03:56:37;18.30;58.60
59977;DHT22;45837;51.076;3.578;2023-12-28T03:59:05;18.30;58.60
59977;DHT22;45837;51.076;3.578;2023-12-28T04:01:33;18.30;58.50
59977;DHT22;45837;51.076;3.578;2023-12-28T04:03:59;18.30;58.60
59977;DHT22;45837;51.076;3.578;2023-12-28T04:06:25;18.30;58.70
59977;DHT22;45837;51.076;3.578;2023-12-28T04:08:51;18.40;58.70
59977;DHT22;45837;51.076;3.578;2023-12-28T04:11:16;18.30;58.70
59977;DHT22;45837;51.076;3.578;2023-12-28T04:13:42;18.30;58.80
59977;DHT22;45837;51.076;3.578;2023-12-28T04:16:12;18.30;58.70
59977;DHT22;45837;51.076;3.578;2023-12-28T04:18:38;18.30;58.50
59977;DHT22;45837;51.076;3.578;2023-12-28T04:21:04;18.30;58.80
59977;DHT22;45837;51.076;3.578;2023-12-28T04:23:33;18.20;58.50
59977;DHT22;45837;51.076;3.578;2023-12-28T04:25:59;18.30;58.80
59977;DHT22;45837;51.076;3.578;2023-12-28T04:28:25;18.30;58.70
59977;DHT22;45837;51.076;3.578;2023-12-28T04:30:51;18.20;58.60
59977;DHT22;45837;51.076;3.578;2023-12-28T04:33:17;18.30;58.80
59977;DHT22;45837;51.076;3.578;2023-12-28T04:35:45;18.20;58.60
59977;DHT22;45837;51.076;3.578;2023-12-28T04:38:12;18.30;58.50
59977;DHT22;45837;51.076;3.578;2023-12-28T04:40:38;18.30;58.50
59977;DHT22;45837;51.076;3.578;2023-12-28T04:43:04;18.30;58.60
59977;DHT22;45837;51.076;3.578;2023-12-28T04:45:30;18.20;58.50
59977;DHT22;45837;51.076;3.578;2023-12-28T04:47:55;18.30;58.70
59977;DHT22;45837;51.076;3.578;2023-12-28T04:50:21;18.20;58.50
59977;DHT22;45837;51.076;3.578;2023-12-28T04:52:49;18.20;58.60
59977;DHT22;45837;51.076;3.578;2023-12-28T04:55:15;18.20;58.70
59977;DHT22;45837;51.076;3.578;2023-12-28T04:57:41;18.20;58.60
59977;DHT22;45837;51.076;3.578;2023-12-28T05:00:08;18.20;58.50
59977;DHT22;45837;51.076;3.578;2023-12-28T05:02:34;18.20;58.40
59977;DHT22;45837;51.076;3.578;2023-12-28T05:05:01;18.20;58.70
59977;DHT22;45837;51.076;3.578;2023-12-28T05:07:27;18.20;58.70
59977;DHT22;45837;51.076;3.578;2023-12-28T05:09:52;18.20;58.60
59977;DHT22;45837;51.076;3.578;2023-12-28T05:12:18;18.20;58.70
59977;DHT22;45837;51.076;3.578;2023-12-28T05:14:44;18.20;58.60
59977;DHT22;45837;51.076;3.578;2023-12-28T05:17:10;18.20;58.60
59977;DHT22;45837;51.076;3.578;2023-12-28T05:19:36;18.20;58.60
59977;DHT22;45837;51.076;3.578;2023-12-28T05:22:02;18.20;58.60
59977;DHT22;45837;51.076;3.578;2023-12-28T05:24:32;18.20;58.60
59977;DHT22;45837;51.076;3.578;2023-12-28T05:26:58;18.20;58.50
59977;DHT22;45837;51.076;3.578;2023-12-28T05:29:24;18.20;58.60
59977;DHT22;45837;51.076;3.578;2023-12-28T05:31:50;18.20;58.70
59977;DHT22;45837;51.076;3.578;2023-12-28T05:34:16;18.10;58.50
59977;DHT22;45837;51.076;3.578;2023-12-28T05:36:42;18.10;58.50
59977;DHT22;45837;51.076;3.578;2023-12-28T05:39:11;18.20;58.60
59977;DHT22;45837;51.076;3.578;2023-12-28T05:41:39;18.10;58.50
59977;DHT22;45837;51.076;3.578;2023-12-28T05:44:06;18.10;58.40
59977;DHT22;45837;51.076;3.578;2023-12-28T05:46:32;18.10;58.50
59977;DHT22;45837;51.076;3.578;2023-12-28T05:48:58;18.10;58.40
59977;DHT22;45837;51.076;3.578;2023-12-28T05:51:24;18.10;58.60
59977;DHT22;45837;51.076;3.578;2023-12-28T05:53:50;18.10;58.50
59977;DHT22;45837;51.076;3.578;2023-12-28T05:56:16;18.10;58.50
59977;DHT22;45837;51.076;3.578;2023-12-28T05:58:41;18.10;58.50
59977;DHT22;45837;51.076;3.578;2023-12-28T06:01:07;18.20;58.70
59977;DHT22;45837;51.076;3.578;2023-12-28T06:03:33;18.10;58.70
59977;DHT22;45837;51.076;3.578;2023-12-28T06:05:59;18.10;58.60
59977;DHT22;45837;51.076;3.578;2023-12-28T06:08:25;18.10;58.50
59977;DHT22;45837;51.076;3.578;2023-12-28T06:10:51;18.10;58.50
59977;DHT22;45837;51.076;3.578;2023-12-28T06:13:17;18.10;58.60
59977;DHT22;45837;51.076;3.578;2023-12-28T06:15:43;18.10;58.50
59977;DHT22;45837;51.076;3.578;2023-12-28T06:18:09;18.10;58.50
59977;DHT22;45837;51.076;3.578;2023-12-28T06:20:35;18.10;58.40
59977;DHT22;45837;51.076;3.578;2023-12-28T06:23:02;18.10;58.50
59977;DHT22;45837;51.076;3.578;2023-12-28T06:25:28;18.10;58.40
59977;DHT22;45837;51.076;3.578;2023-12-28T06:27:54;18.00;58.50
59977;DHT22;45837;51.076;3.578;2023-12-28T06:30:20;18.00;58.30
59977;DHT22;45837;51.076;3.578;2023-12-28T06:32:45;18.10;58.60
59977;DHT22;45837;51.076;3.578;2023-12-28T06:35:11;18.00;58.50
59977;DHT22;45837;51.076;3.578;2023-12-28T06:37:37;18.10;58.30
59977;DHT22;45837;51.076;3.578;2023-12-28T06:40:03;18.00;58.60
59977;DHT22;45837;51.076;3.578;2023-12-28T06:42:29;18.00;58.30
59977;DHT22;45837;51.076;3.578;2023-12-28T06:44:55;18.00;58.40
59977;DHT22;45837;51.076;3.578;2023-12-28T06:47:21;18.10;58.60
59977;DHT22;45837;51.076;3.578;2023-12-28T06:49:47;18.00;58.50
59977;DHT22;45837;51.076;3.578;2023-12-28T06:52:13;18.10;58.40
59977;DHT22;45837;51.076;3.578;2023-12-28T06:54:39;18.00;58.30
59977;DHT22;45837;51.076;3.578;2023-12-28T06:57:05;18.00;58.50
59977;DHT22;45837;51.076;3.578;2023-12-28T06:59:30;18.00;58.60
59977;DHT22;45837;51.076;3.578;2023-12-28T07:01:56;18.00;58.40
59977;DHT22;45837;51.076;3.578;2023-12-28T07:04:22;18.00;59.00
59977;DHT22;45837;51.076;3.578;2023-12-28T07:06:51;18.00;59.30
59977;DHT22;45837;51.076;3.578;2023-12-28T07:09:17;18.10;59.80
59977;DHT22;45837;51.076;3.578;2023-12-28T07:11:43;18.20;60.00
59977;DHT22;45837;51.076;3.578;2023-12-28T07:14:09;18.30;60.20
59977;DHT22;45837;51.076;3.578;2023-12-28T07:16:35;18.30;60.60
59977;DHT22;45837;51.076;3.578;2023-12-28T07:19:01;18.50;61.00
59977;DHT22;45837;51.076;3.578;2023-12-28T07:21:26;18.60;61.30
59977;DHT22;45837;51.076;3.578;2023-12-28T07:23:52;18.80;61.00
59977;DHT22;45837;51.076;3.578;2023-12-28T07:26:18;18.90;60.70
59977;DHT22;45837;51.076;3.578;2023-12-28T07:28:44;18.90;60.70
59977;DHT22;45837;51.076;3.578;2023-12-28T07:31:25;19.10;60.60
59977;DHT22;45837;51.076;3.578;2023-12-28T07:33:51;19.30;60.20
59977;DHT22;45837;51.076;3.578;2023-12-28T07:36:17;19.40;60.30
59977;DHT22;45837;51.076;3.578;2023-12-28T07:38:43;19.50;60.10
59977;DHT22;45837;51.076;3.578;2023-12-28T07:41:10;19.50;59.70
59977;DHT22;45837;51.076;3.578;2023-12-28T07:43:36;19.60;60.30
59977;DHT22;45837;51.076;3.578;2023-12-28T07:46:02;19.70;59.30
59977;DHT22;45837;51.076;3.578;2023-12-28T07:48:28;19.80;59.00
59977;DHT22;45837;51.076;3.578;2023-12-28T07:50:58;19.80;58.90
59977;DHT22;45837;51.076;3.578;2023-12-28T07:53:24;19.80;59.30
59977;DHT22;45837;51.076;3.578;2023-12-28T07:55:50;19.90;59.30
59977;DHT22;45837;51.076;3.578;2023-12-28T07:58:16;19.90;59.20
59977;DHT22;45837;51.076;3.578;2023-12-28T08:00:42;19.90;59.60
59977;DHT22;45837;51.076;3.578;2023-12-28T08:03:08;20.00;59.30
59977;DHT22;45837;51.076;3.578;2023-12-28T08:05:33;20.00;59.20
59977;DHT22;45837;51.076;3.578;2023-12-28T08:07:59;19.90;59.00
59977;DHT22;45837;51.076;3.578;2023-12-28T08:10:25;19.90;58.90
59977;DHT22;45837;51.076;3.578;2023-12-28T08:12:51;20.20;58.90
59977;DHT22;45837;51.076;3.578;2023-12-28T08:15:18;20.30;58.90
59977;DHT22;45837;51.076;3.578;2023-12-28T08:17:44;20.30;58.90
59977;DHT22;45837;51.076;3.578;2023-12-28T08:20:10;20.30;58.80
59977;DHT22;45837;51.076;3.578;2023-12-28T08:22:36;20.40;58.80
59977;DHT22;45837;51.076;3.578;2023-12-28T08:25:01;20.40;58.90
59977;DHT22;45837;51.076;3.578;2023-12-28T08:27:27;20.40;59.00
59977;DHT22;45837;51.076;3.578;2023-12-28T08:29:53;20.40;59.10
59977;DHT22;45837;51.076;3.578;2023-12-28T08:32:19;20.40;59.20
59977;DHT22;45837;51.076;3.578;2023-12-28T08:34:45;20.30;59.30
59977;DHT22;45837;51.076;3.578;2023-12-28T08:37:13;20.30;59.20
59977;DHT22;45837;51.076;3.578;2023-12-28T08:39:40;20.30;59.40
59977;DHT22;45837;51.076;3.578;2023-12-28T08:42:05;20.40;59.50
59977;DHT22;45837;51.076;3.578;2023-12-28T08:44:31;20.30;59.40
59977;DHT22;45837;51.076;3.578;2023-12-28T08:46:58;20.30;59.50
59977;DHT22;45837;51.076;3.578;2023-12-28T08:49:24;20.30;59.30
59977;DHT22;45837;51.076;3.578;2023-12-28T08:51:51;20.20;59.40
59977;DHT22;45837;51.076;3.578;2023-12-28T08:54:17;20.40;59.30
59977;DHT22;45837;51.076;3.578;2023-12-28T08:56:43;20.50;59.20
59977;DHT22;45837;51.076;3.578;2023-12-28T08:59:09;20.50;59.30
59977;DHT22;45837;51.076;3.578;2023-12-28T09:01:35;20.50;59.20
59977;DHT22;45837;51.076;3.578;2023-12-28T09:04:01;20.50;59.40
59977;DHT22;45837;51.076;3.578;2023-12-28T09:06:27;20.40;59.30
59977;DHT22;45837;51.076;3.578;2023-12-28T09:08:52;20.40;59.30
59977;DHT22;45837;51.076;3.578;2023-12-28T09:11:19;20.50;59.30
59977;DHT22;45837;51.076;3.578;2023-12-28T09:13:45;20.50;59.30
59977;DHT22;45837;51.076;3.578;2023-12-28T09:16:13;20.50;59.40
59977;DHT22;45837;51.076;3.578;2023-12-28T09:18:39;20.50;59.20
59977;DHT22;45837;51.076;3.578;2023-12-28T09:21:07;20.50;59.20
59977;DHT22;45837;51.076;3.578;2023-12-28T09:23:34;20.60;59.20
59977;DHT22;45837;51.076;3.578;2023-12-28T09:26:02;20.50;58.50
59977;DHT22;45837;51.076;3.578;2023-12-28T09:28:31;20.60;58.30
59977;DHT22;45837;51.076;3.578;2023-12-28T09:30:58;20.60;58.30
59977;DHT22;45837;51.076;3.578;2023-12-28T09:33:23;20.60;58.30
59977;DHT22;45837;51.076;3.578;2023-12-28T09:35:49;20.60;56.50
59977;DHT22;45837;51.076;3.578;2023-12-28T09:38:15;20.70;54.70
59977;DHT22;45837;51.076;3.578;2023-12-28T09:40:42;20.60;54.70
59977;DHT22;45837;51.076;3.578;2023-12-28T09:43:24;20.60;55.30
59977;DHT22;45837;51.076;3.578;2023-12-28T09:45:54;20.60;54.70
59977;DHT22;45837;51.076;3.578;2023-12-28T09:48:21;20.50;54.80
59977;DHT22;45837;51.076;3.578;2023-12-28T09:50:51;20.50;54.90
59977;DHT22;45837;51.076;3.578;2023-12-28T09:53:23;20.50;54.90
59977;DHT22;45837;51.076;3.578;2023-12-28T09:55:49;20.50;54.80
59977;DHT22;45837;51.076;3.578;2023-12-28T09:58:18;20.40;55.00
59977;DHT22;45837;51.076;3.578;2023-12-28T10:00:46;20.30;55.20
59977;DHT22;45837;51.076;3.578;2023-12-28T10:03:13;20.30;55.60
59977;DHT22;45837;51.076;3.578;2023-12-28T10:05:45;20.20;55.90
59977;DHT22;45837;51.076;3.578;2023-12-28T10:08:12;20.20;56.30
59977;DHT22;45837;51.076;3.578;2023-12-28T10:10:42;20.20;56.60
59977;DHT22;45837;51.076;3.578;2023-12-28T10:13:09;20.10;56.70
59977;DHT22;45837;51.076;3.578;2023-12-28T10:15:38;20.10;56.90
59977;DHT22;45837;51.076;3.578;2023-12-28T10:18:04;20.10;56.50
59977;DHT22;45837;51.076;3.578;2023-12-28T10:20:31;20.20;56.00
59977;DHT22;45837;51.076;3.578;2023-12-28T10:23:00;20.20;55.70
59977;DHT22;45837;51.076;3.578;2023-12-28T10:25:31;20.20;55.40
59977;DHT22;45837;51.076;3.578;2023-12-28T10:28:03;20.20;55.20
59977;DHT22;45837;51.076;3.578;2023-12-28T10:30:29;20.20;54.80
59977;DHT22;45837;51.076;3.578;2023-12-28T10:32:55;20.20;54.70
59977;DHT22;45837;51.076;3.578;2023-12-28T10:35:21;20.20;54.80
59977;DHT22;45837;51.076;3.578;2023-12-28T10:37:51;20.20;54.60
59977;DHT22;45837;51.076;3.578;2023-12-28T10:40:20;20.10;54.40
59977;DHT22;45837;51.076;3.578;2023-12-28T10:45:18;20.10;54.30
59977;DHT22;45837;51.076;3.578;2023-12-28T10:50:34;20.10;53.90
59977;DHT22;45837;51.076;3.578;2023-12-28T10:53:15;20.00;53.90
59977;DHT22;45837;51.076;3.578;2023-12-28T10:55:53;20.00;53.10
59977;DHT22;45837;51.076;3.578;2023-12-28T10:58:47;19.90;53.20
59977;DHT22;45837;51.076;3.578;2023-12-28T11:01:21;19.90;53.30
59977;DHT22;45837;51.076;3.578;2023-12-28T11:03:57;19.90;53.20
59977;DHT22;45837;51.076;3.578;2023-12-28T11:06:25;19.90;53.20
59977;DHT22;45837;51.076;3.578;2023-12-28T11:08:52;19.80;53.20
59977;DHT22;45837;51.076;3.578;2023-12-28T11:11:21;19.80;53.20
59977;DHT22;45837;51.076;3.578;2023-12-28T11:13:48;19.80;53.40
59977;DHT22;45837;51.076;3.578;2023-12-28T11:16:17;19.80;53.00
59977;DHT22;45837;51.076;3.578;2023-12-28T11:18:44;19.80;53.00
59977;DHT22;45837;51.076;3.578;2023-12-28T11:21:10;19.70;53.00
59977;DHT22;45837;51.076;3.578;2023-12-28T11:23:37;19.70;52.80
59977;DHT22;45837;51.076;3.578;2023-12-28T11:26:03;19.70;53.10
59977;DHT22;45837;51.076;3.578;2023-12-28T11:28:29;19.60;53.50
59977;DHT22;45837;51.076;3.578;2023-12-28T11:30:56;19.60;53.80
59977;DHT22;45837;51.076;3.578;2023-12-28T11:33:22;19.60;54.00
59977;DHT22;45837;51.076;3.578;2023-12-28T11:35:48;19.60;54.50
59977;DHT22;45837;51.076;3.578;2023-12-28T11:38:15;19.60;54.90
59977;DHT22;45837;51.076;3.578;2023-12-28T11:40:46;19.70;55.00
59977;DHT22;45837;51.076;3.578;2023-12-28T11:43:20;19.80;55.20
59977;DHT22;45837;51.076;3.578;2023-12-28T11:45:48;19.80;55.30
59977;DHT22;45837;51.076;3.578;2023-12-28T11:48:26;19.90;55.10
59977;DHT22;45837;51.076;3.578;2023-12-28T11:50:57;20.00;55.30
59977;DHT22;45837;51.076;3.578;2023-12-28T11:53:23;20.10;55.30
59977;DHT22;45837;51.076;3.578;2023-12-28T11:55:50;20.20;55.50
59977;DHT22;45837;51.076;3.578;2023-12-28T11:58:17;20.30;55.30
59977;DHT22;45837;51.076;3.578;2023-12-28T12:00:43;20.40;55.40
59977;DHT22;45837;51.076;3.578;2023-12-28T12:03:12;20.50;55.80
59977;DHT22;45837;51.076;3.578;2023-12-28T12:05:39;20.60;55.50
59977;DHT22;45837;51.076;3.578;2023-12-28T12:08:06;21.40;56.10
59977;DHT22;45837;51.076;3.578;2023-12-28T12:10:34;20.60;55.80
59977;DHT22;45837;51.076;3.578;2023-12-28T12:13:01;20.60;55.80
59977;DHT22;45837;51.076;3.578;2023-12-28T12:15:29;20.70;56.00
59977;DHT22;45837;51.076;3.578;2023-12-28T12:17:55;20.70;56.00
59977;DHT22;45837;51.076;3.578;2023-12-28T12:20:21;20.70;56.10
59977;DHT22;45837;51.076;3.578;2023-12-28T12:22:48;20.70;56.30
59977;DHT22;45837;51.076;3.578;2023-12-28T12:25:15;20.70;56.30
59977;DHT22;45837;51.076;3.578;2023-12-28T12:27:41;20.70;56.50
59977;DHT22;45837;51.076;3.578;2023-12-28T12:30:07;20.60;56.60
59977;DHT22;45837;51.076;3.578;2023-12-28T12:32:35;20.60;56.60
59977;DHT22;45837;51.076;3.578;2023-12-28T12:35:09;20.60;56.70
59977;DHT22;45837;51.076;3.578;2023-12-28T12:37:37;20.60;56.60
59977;DHT22;45837;51.076;3.578;2023-12-28T12:40:04;20.60;56.60
59977;DHT22;45837;51.076;3.578;2023-12-28T12:42:32;20.60;56.60
59977;DHT22;45837;51.076;3.578;2023-12-28T12:44:58;20.70;56.80
59977;DHT22;45837;51.076;3.578;2023-12-28T12:47:24;20.70;57.20
59977;DHT22;45837;51.076;3.578;2023-12-28T12:49:55;20.70;57.20
59977;DHT22;45837;51.076;3.578;2023-12-28T12:52:21;20.70;57.40
59977;DHT22;45837;51.076;3.578;2023-12-28T12:54:58;20.70;57.80
59977;DHT22;45837;51.076;3.578;2023-12-28T12:57:24;20.80;58.40
59977;DHT22;45837;51.076;3.578;2023-12-28T12:59:52;20.80;58.70
59977;DHT22;45837;51.076;3.578;2023-12-28T13:02:17;20.70;59.30
59977;DHT22;45837;51.076;3.578;2023-12-28T13:04:44;20.70;59.80
59977;DHT22;45837;51.076;3.578;2023-12-28T13:07:10;20.80;60.10
59977;DHT22;45837;51.076;3.578;2023-12-28T13:09:35;20.80;59.80
59977;DHT22;45837;51.076;3.578;2023-12-28T13:12:01;20.70;60.00
59977;DHT22;45837;51.076;3.578;2023-12-28T13:14:29;20.80;59.90
59977;DHT22;45837;51.076;3.578;2023-12-28T13:16:55;20.80;60.00
59977;DHT22;45837;51.076;3.578;2023-12-28T13:19:21;20.70;59.70
59977;DHT22;45837;51.076;3.578;2023-12-28T13:21:47;20.80;60.00
59977;DHT22;45837;51.076;3.578;2023-12-28T13:24:13;20.80;60.10
59977;DHT22;45837;51.076;3.578;2023-12-28T13:26:39;20.90;60.30
59977;DHT22;45837;51.076;3.578;2023-12-28T13:29:05;20.90;60.10
59977;DHT22;45837;51.076;3.578;2023-12-28T13:31:30;20.90;60.20
59977;DHT22;45837;51.076;3.578;2023-12-28T13:33:56;20.90;60.30
59977;DHT22;45837;51.076;3.578;2023-12-28T13:36:22;20.40;60.00
59977;DHT22;45837;51.076;3.578;2023-12-28T13:38:48;20.90;60.00
59977;DHT22;45837;51.076;3.578;2023-12-28T13:41:14;20.90;60.20
59977;DHT22;45837;51.076;3.578;2023-12-28T13:43:39;20.90;60.10
59977;DHT22;45837;51.076;3.578;2023-12-28T13:46:05;20.80;59.80
59977;DHT22;45837;51.076;3.578;2023-12-28T13:48:31;20.90;59.90
59977;DHT22;45837;51.076;3.578;2023-12-28T13:50:57;20.80;60.00
59977;DHT22;45837;51.076;3.578;2023-12-28T13:53:23;20.80;59.50
59977;DHT22;45837;51.076;3.578;2023-12-28T13:55:49;20.90;59.00
59977;DHT22;45837;51.076;3.578;2023-12-28T13:58:14;20.90;58.50
59977;DHT22;45837;51.076;3.578;2023-12-28T14:00:40;20.90;58.00
59977;DHT22;45837;51.076;3.578;2023-12-28T14:03:06;20.80;57.70
59977;DHT22;45837;51.076;3.578;2023-12-28T14:05:32;20.90;57.10
59977;DHT22;45837;51.076;3.578;2023-12-28T14:07:58;20.90;56.70
59977;DHT22;45837;51.076;3.578;2023-12-28T14:10:24;20.80;56.40
59977;DHT22;45837;51.076;3.578;2023-12-28T14:12:50;20.80;55.90
59977;DHT22;45837;51.076;3.578;2023-12-28T14:15:15;20.80;55.60
59977;DHT22;45837;51.076;3.578;2023-12-28T14:17:42;20.80;55.30
59977;DHT22;45837;51.076;3.578;2023-12-28T14:20:08;20.70;55.00
59977;DHT22;45837;51.076;3.578;2023-12-28T14:22:38;20.70;54.90
59977;DHT22;45837;51.076;3.578;2023-12-28T14:25:05;20.70;54.00
59977;DHT22;45837;51.076;3.578;2023-12-28T14:27:31;20.60;54.30
59977;DHT22;45837;51.076;3.578;2023-12-28T14:29:57;20.60;54.30
59977;DHT22;45837;51.076;3.578;2023-12-28T14:32:23;20.60;54.00
59977;DHT22;45837;51.076;3.578;2023-12-28T14:34:49;20.60;53.60
59977;DHT22;45837;51.076;3.578;2023-12-28T14:37:15;20.70;52.10
59977;DHT22;45837;51.076;3.578;2023-12-28T14:39:43;20.60;51.90
59977;DHT22;45837;51.076;3.578;2023-12-28T14:42:08;20.50;51.90
59977;DHT22;45837;51.076;3.578;2023-12-28T14:44:36;20.50;52.00
59977;DHT22;45837;51.076;3.578;2023-12-28T14:47:02;20.40;51.90
59977;DHT22;45837;51.076;3.578;2023-12-28T14:49:29;20.40;51.90
59977;DHT22;45837;51.076;3.578;2023-12-28T14:51:55;20.40;51.90
59977;DHT22;45837;51.076;3.578;2023-12-28T14:54:21;20.40;51.90
59977;DHT22;45837;51.076;3.578;2023-12-28T14:56:47;20.30;51.80
59977;DHT22;45837;51.076;3.578;2023-12-28T14:59:13;20.30;51.40
59977;DHT22;45837;51.076;3.578;2023-12-28T15:01:38;20.30;51.60
59977;DHT22;45837;51.076;3.578;2023-12-28T15:04:04;20.30;51.90
59977;DHT22;45837;51.076;3.578;2023-12-28T15:06:30;20.30;52.50
59977;DHT22;45837;51.076;3.578;2023-12-28T15:08:56;20.20;52.70
59977;DHT22;45837;51.076;3.578;2023-12-28T15:11:22;20.20;53.20
59977;DHT22;45837;51.076;3.578;2023-12-28T15:13:49;20.10;53.10
59977;DHT22;45837;51.076;3.578;2023-12-28T15:16:15;20.10;53.30
59977;DHT22;45837;51.076;3.578;2023-12-28T15:18:41;20.00;53.60
59977;DHT22;45837;51.076;3.578;2023-12-28T15:21:07;20.00;53.90
59977;DHT22;45837;51.076;3.578;2023-12-28T15:23:34;20.10;54.20
59977;DHT22;45837;51.076;3.578;2023-12-28T15:26:00;20.20;54.50
59977;DHT22;45837;51.076;3.578;2023-12-28T15:28:25;20.20;55.00
59977;DHT22;45837;51.076;3.578;2023-12-28T15:30:54;20.20;55.00
59977;DHT22;45837;51.076;3.578;2023-12-28T15:33:20;20.30;55.30
59977;DHT22;45837;51.076;3.578;2023-12-28T15:35:47;20.30;55.30